Terminal Aerodrome Forecast
Issued by NWS

Current Version | Previous Version | Text Only | Print | Product List | Glossary On
Versions: 1 2 3 4 5 6 7 8 9 10 11 12 13 14 15 16 17 18 19 20 21
000
FTUS43 KDLH 030525
TAFHIB
TAF
KHIB 030525Z 0306/0406 30009KT P6SM BKN070
      TEMPO 0306/0309 SCT070
     FM031400 32011KT P6SM SCT030 BKN060
     FM031600 33013G19KT P6SM BKN040
     FM032000 32014G20KT P6SM VCSH BKN035 BKN080
     FM040100 30006KT P6SM SCT050 SCT090=

USA.gov is the U.S. government's official web portal to all federal, state and local government web resources and services.